createdAt,value
2019-04-10T00:00:00.537Z,69.00
2019-04-10T00:02:33.317Z,68.30
2019-04-10T00:05:04.505Z,67.40
2019-04-10T00:07:35.465Z,66.90
2019-04-10T00:10:07.793Z,66.80
2019-04-10T00:12:38.867Z,66.90
2019-04-10T00:15:10.011Z,67.00
2019-04-10T00:17:41.058Z,67.20
2019-04-10T00:20:12.286Z,66.60
2019-04-10T00:22:43.147Z,66.40
2019-04-10T00:25:14.906Z,65.70
2019-04-10T00:27:45.924Z,66.30
2019-04-10T00:30:16.796Z,66.40
2019-04-10T00:32:48.069Z,65.80
2019-04-10T00:35:19.285Z,65.60
2019-04-10T00:37:51.161Z,65.40
2019-04-10T00:40:23.446Z,64.80
2019-04-10T00:42:56.963Z,64.50
2019-04-10T00:45:27.180Z,64.50
2019-04-10T00:47:57.944Z,64.00
2019-04-10T00:50:28.691Z,63.50
2019-04-10T00:53:00.845Z,63.00
2019-04-10T00:55:32.194Z,62.90
2019-04-10T00:58:03.675Z,62.30
2019-04-10T01:00:36.464Z,62.00
2019-04-10T01:03:07.420Z,62.30
2019-04-10T01:05:39.540Z,62.00
2019-04-10T01:08:11.035Z,61.60
2019-04-10T01:10:42.236Z,61.80
2019-04-10T01:13:13.087Z,60.20
2019-04-10T01:15:44.775Z,59.40
2019-04-10T01:18:15.683Z,59.30
2019-04-10T01:20:46.735Z,59.30
2019-04-10T01:23:17.952Z,58.60
2019-04-10T01:25:48.803Z,58.20
2019-04-10T01:28:20.574Z,58.20
2019-04-10T01:30:52.744Z,58.30
2019-04-10T01:33:23.630Z,58.00
2019-04-10T01:35:54.443Z,57.20
2019-04-10T01:38:25.343Z,56.80
2019-04-10T01:41:00.214Z,56.50
2019-04-10T01:43:31.221Z,56.40
2019-04-10T01:46:02.430Z,55.90
2019-04-10T01:48:34.440Z,55.70
2019-04-10T01:51:06.618Z,55.40
2019-04-10T01:53:37.806Z,55.60
2019-04-10T01:56:21.100Z,55.90
2019-04-10T01:58:43.404Z,55.70
2019-04-10T02:01:16.515Z,55.00
2019-04-10T02:03:46.715Z,53.90
2019-04-10T02:06:18.865Z,53.70
2019-04-10T02:08:49.967Z,53.20
2019-04-10T02:11:21.749Z,52.70
2019-04-10T02:13:53.885Z,52.90
2019-04-10T02:16:25.584Z,52.30
2019-04-10T02:18:57.722Z,51.60
2019-04-10T02:21:29.009Z,51.10
2019-04-10T02:24:00.916Z,51.90
2019-04-10T02:26:31.983Z,52.00
2019-04-10T02:29:03.818Z,52.20
2019-04-10T02:31:34.726Z,51.10
2019-04-10T02:34:07.595Z,50.80
2019-04-10T02:36:39.369Z,50.50
2019-04-10T02:39:23.063Z,50.50
2019-04-10T02:41:43.993Z,48.30
2019-04-10T02:44:16.364Z,48.60
2019-04-10T02:46:49.808Z,47.20
2019-04-10T02:49:20.471Z,47.00
2019-04-10T02:51:51.976Z,47.00
2019-04-10T02:54:22.969Z,47.40
2019-04-10T02:56:54.885Z,47.00
2019-04-10T02:59:27.019Z,46.70
2019-04-10T03:01:58.046Z,45.80
2019-04-10T03:04:30.970Z,45.40
2019-04-10T03:07:04.108Z,46.00
2019-04-10T03:09:49.792Z,44.00
2019-04-10T03:12:08.532Z,44.40
2019-04-10T03:14:41.516Z,44.60
2019-04-10T03:17:13.193Z,43.90
2019-04-10T03:19:44.008Z,42.70
2019-04-10T03:22:14.973Z,42.70
2019-04-10T03:24:46.472Z,42.40
2019-04-10T03:27:19.085Z,41.20
2019-04-10T03:29:50.027Z,42.30
2019-04-10T03:32:23.670Z,41.30
2019-04-10T03:34:56.528Z,41.70
2019-04-10T03:37:28.519Z,41.60
2019-04-10T03:40:00.399Z,41.40
2019-04-10T03:42:31.348Z,41.20
2019-04-10T03:45:03.297Z,41.50
2019-04-10T03:47:35.549Z,41.80
2019-04-10T03:50:06.817Z,41.90
2019-04-10T03:52:37.898Z,42.20
2019-04-10T03:55:10.392Z,40.90
2019-04-10T03:57:42.736Z,42.30
2019-04-10T04:00:14.353Z,42.10
2019-04-10T04:02:46.302Z,41.00
2019-04-10T04:05:18.280Z,41.90
2019-04-10T04:07:50.629Z,42.40
2019-04-10T04:10:21.726Z,42.50
2019-04-10T04:12:53.380Z,41.00
2019-04-10T04:15:24.750Z,41.70
2019-04-10T04:17:56.801Z,41.10
2019-04-10T04:20:28.669Z,42.00
2019-04-10T04:23:01.253Z,41.50
2019-04-10T04:25:32.800Z,40.60
2019-04-10T04:28:04.542Z,40.10
2019-04-10T04:30:36.675Z,40.10
2019-04-10T04:33:08.756Z,41.40
2019-04-10T04:35:40.838Z,40.80
2019-04-10T04:38:13.502Z,40.10
2019-04-10T04:40:44.420Z,39.70
2019-04-10T04:43:15.426Z,38.80
2019-04-10T04:45:46.500Z,39.50
2019-04-10T04:48:17.680Z,37.80
2019-04-10T04:50:48.371Z,37.90
2019-04-10T04:53:19.638Z,38.00
2019-04-10T04:55:51.435Z,38.40
2019-04-10T04:58:23.067Z,38.10
2019-04-10T05:00:54.423Z,37.60
2019-04-10T05:03:26.958Z,38.40
2019-04-10T05:05:58.234Z,38.80
2019-04-10T05:08:30.165Z,38.50
2019-04-10T05:11:02.123Z,38.70
2019-04-10T05:13:33.562Z,37.80
2019-04-10T05:16:06.137Z,38.60
2019-04-10T05:18:37.292Z,38.20
2019-04-10T05:21:08.881Z,38.60
2019-04-10T05:23:40.637Z,38.80
2019-04-10T05:26:11.708Z,37.90
2019-04-10T05:28:44.490Z,38.10
2019-04-10T05:31:15.122Z,37.70
2019-04-10T05:33:47.108Z,37.00
2019-04-10T05:36:19.251Z,36.10
2019-04-10T05:38:51.125Z,36.60
2019-04-10T05:41:23.260Z,36.20
2019-04-10T05:43:55.055Z,36.50
2019-04-10T05:46:25.960Z,36.20
2019-04-10T05:48:57.887Z,36.90
2019-04-10T05:51:29.177Z,36.10
2019-04-10T05:54:00.131Z,37.20
2019-04-10T05:56:31.079Z,37.40
2019-04-10T05:59:03.016Z,37.50
2019-04-10T06:01:37.278Z,37.70
2019-04-10T06:04:07.206Z,37.50
2019-04-10T06:06:38.782Z,37.10
2019-04-10T06:09:12.120Z,37.50
2019-04-10T06:11:44.091Z,37.40
2019-04-10T06:14:15.777Z,38.60
2019-04-10T06:16:47.403Z,38.00
2019-04-10T06:19:18.408Z,38.20
2019-04-10T06:21:50.306Z,38.40
2019-04-10T06:24:22.338Z,38.10
2019-04-10T06:26:54.119Z,37.60
2019-04-10T06:29:24.986Z,37.70
2019-04-10T06:31:56.878Z,37.50
2019-04-10T06:34:28.106Z,37.30
2019-04-10T06:36:59.867Z,37.40
2019-04-10T06:39:31.038Z,39.70
2019-04-10T06:42:02.569Z,39.50
2019-04-10T06:44:34.236Z,39.20
2019-04-10T06:47:06.323Z,41.00
2019-04-10T06:49:37.166Z,40.50
2019-04-10T06:52:08.324Z,39.80
2019-04-10T06:54:39.340Z,40.40
2019-04-10T06:57:11.402Z,40.10
2019-04-10T06:59:43.004Z,39.90
2019-04-10T07:02:22.752Z,41.00
2019-04-10T07:04:53.327Z,40.10
2019-04-10T07:07:21.597Z,41.20
2019-04-10T07:09:54.483Z,39.40
2019-04-10T07:12:27.773Z,39.50
2019-04-10T07:14:58.197Z,39.50
2019-04-10T07:17:29.287Z,39.10
2019-04-10T07:20:00.172Z,37.60
2019-04-10T07:22:31.247Z,37.10
2019-04-10T07:25:02.852Z,36.60
2019-04-10T07:27:36.931Z,35.80
2019-04-10T07:30:09.809Z,35.40
2019-04-10T07:32:44.662Z,35.30
2019-04-10T07:35:16.634Z,36.30
2019-04-10T07:37:46.560Z,35.30
2019-04-10T07:40:18.506Z,34.50
2019-04-10T07:42:50.433Z,35.50
2019-04-10T07:45:21.370Z,33.70
2019-04-10T07:47:53.931Z,33.30
2019-04-10T07:50:26.033Z,33.30
2019-04-10T07:52:57.572Z,34.30
2019-04-10T07:55:28.849Z,35.30
2019-04-10T07:58:00.315Z,36.60
2019-04-10T08:00:32.061Z,35.30
2019-04-10T08:03:04.084Z,33.50
2019-04-10T08:05:35.616Z,33.30
2019-04-10T08:08:08.559Z,34.90
2019-04-10T08:10:41.249Z,33.10
2019-04-10T08:13:12.249Z,34.30
2019-04-10T08:15:43.336Z,34.00
2019-04-10T08:18:14.669Z,34.20
2019-04-10T08:20:46.683Z,34.90
2019-04-10T08:23:18.210Z,33.90
2019-04-10T08:25:49.602Z,33.70
2019-04-10T08:28:21.948Z,33.70
2019-04-10T08:30:52.880Z,34.10
2019-04-10T08:33:23.643Z,33.20
2019-04-10T08:35:54.948Z,33.40
2019-04-10T08:38:25.960Z,33.90
2019-04-10T08:40:57.147Z,33.50
2019-04-10T08:43:28.176Z,33.20
2019-04-10T08:45:59.095Z,33.60
2019-04-10T08:48:30.466Z,34.50
2019-04-10T08:51:03.077Z,35.40
2019-04-10T08:53:34.463Z,33.30
2019-04-10T08:56:06.499Z,34.50
2019-04-10T08:58:37.632Z,35.70
2019-04-10T09:01:09.138Z,36.40
2019-04-10T09:03:41.280Z,34.90
2019-04-10T09:06:13.369Z,33.30
2019-04-10T09:08:45.335Z,34.50
2019-04-10T09:11:25.460Z,34.90
2019-04-10T09:13:49.187Z,34.70
2019-04-10T09:16:22.743Z,35.70
2019-04-10T09:18:54.343Z,35.20
2019-04-10T09:21:27.822Z,35.60
2019-04-10T09:23:59.526Z,35.10
2019-04-10T09:26:32.669Z,34.30
2019-04-10T09:29:04.584Z,35.00
2019-04-10T09:31:37.819Z,35.60
2019-04-10T09:34:09.657Z,34.90
2019-04-10T09:36:41.656Z,34.60
2019-04-10T09:39:13.172Z,35.20
2019-04-10T09:41:44.286Z,34.40
2019-04-10T09:44:15.690Z,33.60
2019-04-10T09:46:47.376Z,33.90
2019-04-10T09:49:30.425Z,33.50
2019-04-10T09:51:51.285Z,34.10
2019-04-10T09:54:22.340Z,33.70
2019-04-10T09:56:53.567Z,33.60
2019-04-10T09:59:32.913Z,34.30
2019-04-10T10:01:56.988Z,34.40
2019-04-10T10:04:27.888Z,34.10
2019-04-10T10:06:59.820Z,34.70
2019-04-10T10:09:32.429Z,35.20
2019-04-10T10:12:03.607Z,34.70
2019-04-10T10:14:35.635Z,34.90
2019-04-10T10:17:08.512Z,35.30
2019-04-10T10:19:40.636Z,36.00
2019-04-10T10:22:12.645Z,35.40
2019-04-10T10:24:44.008Z,35.50
2019-04-10T10:27:15.675Z,35.70
2019-04-10T10:29:46.836Z,35.70
2019-04-10T10:32:19.101Z,35.80
2019-04-10T10:34:50.440Z,35.90
2019-04-10T10:37:22.152Z,36.20
2019-04-10T10:39:53.435Z,36.40
2019-04-10T10:42:24.374Z,36.50
2019-04-10T10:44:56.383Z,36.70
2019-04-10T10:47:29.087Z,36.90
2019-04-10T10:50:01.086Z,37.10
2019-04-10T10:52:33.294Z,37.10
2019-04-10T10:55:05.298Z,36.90
2019-04-10T10:57:37.369Z,37.30
2019-04-10T11:00:13.098Z,37.50
2019-04-10T11:02:43.671Z,37.50
2019-04-10T11:05:15.079Z,37.70
2019-04-10T11:07:47.081Z,37.60
2019-04-10T11:10:22.895Z,37.80
2019-04-10T11:12:52.176Z,38.00
2019-04-10T11:15:23.964Z,38.00
2019-04-10T11:17:55.092Z,38.20
2019-04-10T11:20:25.973Z,38.30
2019-04-10T11:22:57.729Z,38.40
2019-04-10T11:25:29.981Z,39.20
2019-04-10T11:28:01.257Z,38.80
2019-04-10T11:30:32.482Z,39.00
